sensor_id;sensor_type;location;lat;lon;timestamp;temperature;humidity
70456;DHT22;57916;51.996;5.180;2022-07-23T00:00:30;21.70;55.10
70456;DHT22;57916;51.996;5.180;2022-07-23T00:03:05;21.70;55.00
70456;DHT22;57916;51.996;5.180;2022-07-23T00:05:32;21.70;55.00
70456;DHT22;57916;51.996;5.180;2022-07-23T00:08:01;21.60;55.20
70456;DHT22;57916;51.996;5.180;2022-07-23T00:10:28;21.60;55.00
70456;DHT22;57916;51.996;5.180;2022-07-23T00:12:55;21.60;55.10
70456;DHT22;57916;51.996;5.180;2022-07-23T00:15:22;21.60;55.00
70456;DHT22;57916;51.996;5.180;2022-07-23T00:17:49;21.50;55.10
70456;DHT22;57916;51.996;5.180;2022-07-23T00:20:16;21.50;55.30
70456;DHT22;57916;51.996;5.180;2022-07-23T00:22:51;21.50;55.50
70456;DHT22;57916;51.996;5.180;2022-07-23T00:25:18;21.50;55.70
70456;DHT22;57916;51.996;5.180;2022-07-23T00:27:57;21.40;55.50
70456;DHT22;57916;51.996;5.180;2022-07-23T00:30:24;21.40;55.60
70456;DHT22;57916;51.996;5.180;2022-07-23T00:32:57;21.30;55.80
70456;DHT22;57916;51.996;5.180;2022-07-23T00:35:29;21.40;56.20
70456;DHT22;57916;51.996;5.180;2022-07-23T00:37:57;21.30;56.00
70456;DHT22;57916;51.996;5.180;2022-07-23T00:40:25;21.30;56.10
70456;DHT22;57916;51.996;5.180;2022-07-23T00:42:52;21.30;56.30
70456;DHT22;57916;51.996;5.180;2022-07-23T00:45:20;21.30;57.40
70456;DHT22;57916;51.996;5.180;2022-07-23T00:47:47;21.30;56.40
70456;DHT22;57916;51.996;5.180;2022-07-23T00:50:14;21.30;56.60
70456;DHT22;57916;51.996;5.180;2022-07-23T00:52:41;21.30;56.70
70456;DHT22;57916;51.996;5.180;2022-07-23T00:55:10;21.30;56.70
70456;DHT22;57916;51.996;5.180;2022-07-23T00:57:38;21.30;56.90
70456;DHT22;57916;51.996;5.180;2022-07-23T01:00:08;21.30;56.90
70456;DHT22;57916;51.996;5.180;2022-07-23T01:02:37;21.30;57.10
70456;DHT22;57916;51.996;5.180;2022-07-23T01:05:05;21.30;57.20
70456;DHT22;57916;51.996;5.180;2022-07-23T01:07:33;21.30;57.30
70456;DHT22;57916;51.996;5.180;2022-07-23T01:10:00;21.30;57.30
70456;DHT22;57916;51.996;5.180;2022-07-23T01:12:29;21.30;57.20
70456;DHT22;57916;51.996;5.180;2022-07-23T01:14:58;21.30;57.20
70456;DHT22;57916;51.996;5.180;2022-07-23T01:17:28;21.30;57.10
70456;DHT22;57916;51.996;5.180;2022-07-23T01:19:55;21.30;57.30
70456;DHT22;57916;51.996;5.180;2022-07-23T01:22:22;21.30;57.20
70456;DHT22;57916;51.996;5.180;2022-07-23T01:24:50;21.30;57.30
70456;DHT22;57916;51.996;5.180;2022-07-23T01:27:21;21.30;57.40
70456;DHT22;57916;51.996;5.180;2022-07-23T01:29:54;21.20;57.30
70456;DHT22;57916;51.996;5.180;2022-07-23T01:32:22;21.20;57.40
70456;DHT22;57916;51.996;5.180;2022-07-23T01:34:48;21.20;57.30
70456;DHT22;57916;51.996;5.180;2022-07-23T01:37:15;21.10;57.20
70456;DHT22;57916;51.996;5.180;2022-07-23T01:39:43;21.10;57.20
70456;DHT22;57916;51.996;5.180;2022-07-23T01:42:11;21.10;57.40
70456;DHT22;57916;51.996;5.180;2022-07-23T01:44:39;21.00;57.40
70456;DHT22;57916;51.996;5.180;2022-07-23T01:47:09;21.00;57.40
70456;DHT22;57916;51.996;5.180;2022-07-23T01:49:37;21.00;57.50
70456;DHT22;57916;51.996;5.180;2022-07-23T01:52:26;21.00;57.60
70456;DHT22;57916;51.996;5.180;2022-07-23T01:54:54;20.90;57.60
70456;DHT22;57916;51.996;5.180;2022-07-23T01:57:20;20.90;57.80
70456;DHT22;57916;51.996;5.180;2022-07-23T01:59:48;20.90;57.80
70456;DHT22;57916;51.996;5.180;2022-07-23T02:02:18;20.80;57.70
70456;DHT22;57916;51.996;5.180;2022-07-23T02:04:45;20.80;57.90
70456;DHT22;57916;51.996;5.180;2022-07-23T02:07:12;20.80;58.00
70456;DHT22;57916;51.996;5.180;2022-07-23T02:09:39;20.80;57.80
70456;DHT22;57916;51.996;5.180;2022-07-23T02:12:06;20.70;57.70
70456;DHT22;57916;51.996;5.180;2022-07-23T02:14:33;20.70;58.00
70456;DHT22;57916;51.996;5.180;2022-07-23T02:17:04;20.70;58.20
70456;DHT22;57916;51.996;5.180;2022-07-23T02:19:31;20.60;58.20
70456;DHT22;57916;51.996;5.180;2022-07-23T02:22:01;20.60;58.40
70456;DHT22;57916;51.996;5.180;2022-07-23T02:24:28;20.60;58.40
70456;DHT22;57916;51.996;5.180;2022-07-23T02:26:55;20.60;58.70
70456;DHT22;57916;51.996;5.180;2022-07-23T02:29:22;20.60;58.50
70456;DHT22;57916;51.996;5.180;2022-07-23T02:31:48;20.50;58.50
70456;DHT22;57916;51.996;5.180;2022-07-23T02:34:15;20.50;58.50
70456;DHT22;57916;51.996;5.180;2022-07-23T02:36:43;20.50;58.50
70456;DHT22;57916;51.996;5.180;2022-07-23T02:39:09;20.50;58.70
70456;DHT22;57916;51.996;5.180;2022-07-23T02:41:37;20.50;58.70
70456;DHT22;57916;51.996;5.180;2022-07-23T02:44:04;20.50;58.70
70456;DHT22;57916;51.996;5.180;2022-07-23T02:46:32;20.50;58.70
70456;DHT22;57916;51.996;5.180;2022-07-23T02:48:59;20.40;58.70
70456;DHT22;57916;51.996;5.180;2022-07-23T02:51:26;20.40;58.80
70456;DHT22;57916;51.996;5.180;2022-07-23T02:53:58;20.40;58.90
70456;DHT22;57916;51.996;5.180;2022-07-23T02:56:25;20.40;59.00
70456;DHT22;57916;51.996;5.180;2022-07-23T02:58:51;20.40;59.00
70456;DHT22;57916;51.996;5.180;2022-07-23T03:01:20;20.30;58.90
70456;DHT22;57916;51.996;5.180;2022-07-23T03:03:47;20.30;59.00
70456;DHT22;57916;51.996;5.180;2022-07-23T03:06:14;20.30;58.80
70456;DHT22;57916;51.996;5.180;2022-07-23T03:08:41;20.30;59.00
70456;DHT22;57916;51.996;5.180;2022-07-23T03:11:08;20.20;59.10
70456;DHT22;57916;51.996;5.180;2022-07-23T03:13:39;20.20;59.30
70456;DHT22;57916;51.996;5.180;2022-07-23T03:16:07;20.20;59.40
70456;DHT22;57916;51.996;5.180;2022-07-23T03:18:36;20.10;59.50
70456;DHT22;57916;51.996;5.180;2022-07-23T03:21:07;20.10;59.50
70456;DHT22;57916;51.996;5.180;2022-07-23T03:23:34;20.10;59.70
70456;DHT22;57916;51.996;5.180;2022-07-23T03:26:01;20.10;59.80
70456;DHT22;57916;51.996;5.180;2022-07-23T03:28:28;20.10;59.90
70456;DHT22;57916;51.996;5.180;2022-07-23T03:30:55;20.00;59.80
70456;DHT22;57916;51.996;5.180;2022-07-23T03:33:23;20.00;60.00
70456;DHT22;57916;51.996;5.180;2022-07-23T03:35:50;20.10;60.00
70456;DHT22;57916;51.996;5.180;2022-07-23T03:38:21;20.10;60.10
70456;DHT22;57916;51.996;5.180;2022-07-23T03:40:49;20.10;60.10
70456;DHT22;57916;51.996;5.180;2022-07-23T03:43:17;20.00;60.00
70456;DHT22;57916;51.996;5.180;2022-07-23T03:45:44;20.00;60.20
70456;DHT22;57916;51.996;5.180;2022-07-23T03:48:11;20.00;60.00
70456;DHT22;57916;51.996;5.180;2022-07-23T03:50:39;20.00;60.70
70456;DHT22;57916;51.996;5.180;2022-07-23T03:53:06;20.00;60.00
70456;DHT22;57916;51.996;5.180;2022-07-23T03:55:34;20.00;60.20
70456;DHT22;57916;51.996;5.180;2022-07-23T03:58:01;19.90;60.20
70456;DHT22;57916;51.996;5.180;2022-07-23T04:00:28;19.90;60.10
70456;DHT22;57916;51.996;5.180;2022-07-23T04:02:55;19.90;60.10
70456;DHT22;57916;51.996;5.180;2022-07-23T04:05:22;19.90;60.10
70456;DHT22;57916;51.996;5.180;2022-07-23T04:07:54;19.90;60.10
70456;DHT22;57916;51.996;5.180;2022-07-23T04:10:21;19.90;60.80
70456;DHT22;57916;51.996;5.180;2022-07-23T04:12:49;19.90;60.00
70456;DHT22;57916;51.996;5.180;2022-07-23T04:15:16;19.80;60.00
70456;DHT22;57916;51.996;5.180;2022-07-23T04:17:43;19.90;60.20
70456;DHT22;57916;51.996;5.180;2022-07-23T04:20:11;19.80;60.30
70456;DHT22;57916;51.996;5.180;2022-07-23T04:22:45;19.80;60.20
70456;DHT22;57916;51.996;5.180;2022-07-23T04:25:12;19.80;60.00
70456;DHT22;57916;51.996;5.180;2022-07-23T04:27:40;19.80;60.00
70456;DHT22;57916;51.996;5.180;2022-07-23T04:30:08;19.80;60.30
70456;DHT22;57916;51.996;5.180;2022-07-23T04:32:36;19.80;60.50
70456;DHT22;57916;51.996;5.180;2022-07-23T04:35:08;19.80;60.50
70456;DHT22;57916;51.996;5.180;2022-07-23T04:37:35;19.80;60.60
70456;DHT22;57916;51.996;5.180;2022-07-23T04:40:03;19.80;60.70
70456;DHT22;57916;51.996;5.180;2022-07-23T04:42:30;19.80;60.80
70456;DHT22;57916;51.996;5.180;2022-07-23T04:44:57;19.90;60.80
70456;DHT22;57916;51.996;5.180;2022-07-23T04:47:24;19.90;61.00
70456;DHT22;57916;51.996;5.180;2022-07-23T04:49:56;19.90;61.00
70456;DHT22;57916;51.996;5.180;2022-07-23T04:52:24;19.90;61.20
70456;DHT22;57916;51.996;5.180;2022-07-23T04:54:52;19.90;61.20
70456;DHT22;57916;51.996;5.180;2022-07-23T04:57:19;19.90;61.40
70456;DHT22;57916;51.996;5.180;2022-07-23T04:59:46;20.00;61.40
70456;DHT22;57916;51.996;5.180;2022-07-23T05:02:14;20.00;61.30
70456;DHT22;57916;51.996;5.180;2022-07-23T05:04:41;20.00;61.30
70456;DHT22;57916;51.996;5.180;2022-07-23T05:07:08;20.10;61.30
70456;DHT22;57916;51.996;5.180;2022-07-23T05:09:35;20.10;61.50
70456;DHT22;57916;51.996;5.180;2022-07-23T05:12:02;20.20;61.50
70456;DHT22;57916;51.996;5.180;2022-07-23T05:14:31;20.20;61.50
70456;DHT22;57916;51.996;5.180;2022-07-23T05:16:58;20.20;61.50
70456;DHT22;57916;51.996;5.180;2022-07-23T05:19:26;20.30;61.50
70456;DHT22;57916;51.996;5.180;2022-07-23T05:21:53;20.30;61.50
70456;DHT22;57916;51.996;5.180;2022-07-23T05:24:20;20.40;61.50
70456;DHT22;57916;51.996;5.180;2022-07-23T05:26:48;20.40;61.60
70456;DHT22;57916;51.996;5.180;2022-07-23T05:29:15;20.50;61.60
70456;DHT22;57916;51.996;5.180;2022-07-23T05:31:42;20.60;61.50
70456;DHT22;57916;51.996;5.180;2022-07-23T05:34:09;20.60;61.40
70456;DHT22;57916;51.996;5.180;2022-07-23T05:36:43;20.70;61.70
70456;DHT22;57916;51.996;5.180;2022-07-23T05:39:10;20.70;61.60
70456;DHT22;57916;51.996;5.180;2022-07-23T05:41:37;20.80;61.50
70456;DHT22;57916;51.996;5.180;2022-07-23T05:44:05;20.90;61.60
70456;DHT22;57916;51.996;5.180;2022-07-23T05:46:35;20.90;61.60
70456;DHT22;57916;51.996;5.180;2022-07-23T05:49:06;20.90;61.50
70456;DHT22;57916;51.996;5.180;2022-07-23T05:52:06;21.00;61.10
70456;DHT22;57916;51.996;5.180;2022-07-23T05:54:52;21.00;61.00
70456;DHT22;57916;51.996;5.180;2022-07-23T05:57:19;21.10;60.90
70456;DHT22;57916;51.996;5.180;2022-07-23T05:59:51;21.20;59.90
70456;DHT22;57916;51.996;5.180;2022-07-23T06:02:18;21.30;60.20
70456;DHT22;57916;51.996;5.180;2022-07-23T06:04:45;21.30;59.50
70456;DHT22;57916;51.996;5.180;2022-07-23T06:07:28;21.40;59.50
70456;DHT22;57916;51.996;5.180;2022-07-23T06:09:56;21.50;59.60
70456;DHT22;57916;51.996;5.180;2022-07-23T06:12:23;21.60;59.70
70456;DHT22;57916;51.996;5.180;2022-07-23T06:14:51;21.60;59.10
70456;DHT22;57916;51.996;5.180;2022-07-23T06:17:19;21.70;58.30
70456;DHT22;57916;51.996;5.180;2022-07-23T06:19:46;21.80;57.30
70456;DHT22;57916;51.996;5.180;2022-07-23T06:22:15;21.90;56.60
70456;DHT22;57916;51.996;5.180;2022-07-23T06:24:41;21.80;56.40
70456;DHT22;57916;51.996;5.180;2022-07-23T06:27:08;21.90;56.50
70456;DHT22;57916;51.996;5.180;2022-07-23T06:29:35;22.00;56.70
70456;DHT22;57916;51.996;5.180;2022-07-23T06:32:02;22.20;55.70
70456;DHT22;57916;51.996;5.180;2022-07-23T06:34:29;22.40;54.20
70456;DHT22;57916;51.996;5.180;2022-07-23T06:36:56;22.60;52.60
70456;DHT22;57916;51.996;5.180;2022-07-23T06:39:25;22.70;52.70
70456;DHT22;57916;51.996;5.180;2022-07-23T06:41:52;22.90;51.80
70456;DHT22;57916;51.996;5.180;2022-07-23T06:44:36;23.10;51.80
70456;DHT22;57916;51.996;5.180;2022-07-23T06:47:03;23.30;49.60
70456;DHT22;57916;51.996;5.180;2022-07-23T06:49:30;23.30;50.50
70456;DHT22;57916;51.996;5.180;2022-07-23T06:51:57;23.30;49.80
70456;DHT22;57916;51.996;5.180;2022-07-23T06:54:24;23.40;49.40
70456;DHT22;57916;51.996;5.180;2022-07-23T06:56:51;23.40;49.70
70456;DHT22;57916;51.996;5.180;2022-07-23T06:59:18;23.50;50.10
70456;DHT22;57916;51.996;5.180;2022-07-23T07:01:45;23.70;50.80
70456;DHT22;57916;51.996;5.180;2022-07-23T07:04:12;24.00;48.70
70456;DHT22;57916;51.996;5.180;2022-07-23T07:06:39;24.30;49.30
70456;DHT22;57916;51.996;5.180;2022-07-23T07:09:06;24.80;48.20
70456;DHT22;57916;51.996;5.180;2022-07-23T07:11:33;25.20;45.40
70456;DHT22;57916;51.996;5.180;2022-07-23T07:14:00;25.50;45.00
70456;DHT22;57916;51.996;5.180;2022-07-23T07:16:26;26.00;44.70
70456;DHT22;57916;51.996;5.180;2022-07-23T07:18:58;26.50;43.50
70456;DHT22;57916;51.996;5.180;2022-07-23T07:21:26;27.10;41.90
70456;DHT22;57916;51.996;5.180;2022-07-23T07:23:53;27.70;41.00
70456;DHT22;57916;51.996;5.180;2022-07-23T07:26:20;28.20;41.20
70456;DHT22;57916;51.996;5.180;2022-07-23T07:28:47;28.70;39.30
70456;DHT22;57916;51.996;5.180;2022-07-23T07:31:14;29.10;37.90
70456;DHT22;57916;51.996;5.180;2022-07-23T07:33:41;29.50;37.40
70456;DHT22;57916;51.996;5.180;2022-07-23T07:36:08;29.90;36.70
70456;DHT22;57916;51.996;5.180;2022-07-23T07:38:36;30.20;36.90
70456;DHT22;57916;51.996;5.180;2022-07-23T07:41:03;30.50;36.20
70456;DHT22;57916;51.996;5.180;2022-07-23T07:43:29;30.80;36.20
70456;DHT22;57916;51.996;5.180;2022-07-23T07:45:56;31.00;35.40
70456;DHT22;57916;51.996;5.180;2022-07-23T07:48:23;31.20;34.90
70456;DHT22;57916;51.996;5.180;2022-07-23T07:50:51;31.40;33.70
70456;DHT22;57916;51.996;5.180;2022-07-23T07:53:18;31.60;33.80
70456;DHT22;57916;51.996;5.180;2022-07-23T07:55:45;31.70;33.30
70456;DHT22;57916;51.996;5.180;2022-07-23T07:58:17;31.80;32.80
70456;DHT22;57916;51.996;5.180;2022-07-23T08:00:44;31.90;32.60
70456;DHT22;57916;51.996;5.180;2022-07-23T08:03:11;32.00;33.70
70456;DHT22;57916;51.996;5.180;2022-07-23T08:05:39;32.10;32.50
70456;DHT22;57916;51.996;5.180;2022-07-23T08:08:06;32.20;31.60
70456;DHT22;57916;51.996;5.180;2022-07-23T08:10:33;32.20;31.20
70456;DHT22;57916;51.996;5.180;2022-07-23T08:13:00;32.10;31.60
70456;DHT22;57916;51.996;5.180;2022-07-23T08:15:29;31.90;31.70
70456;DHT22;57916;51.996;5.180;2022-07-23T08:17:56;31.70;31.30
70456;DHT22;57916;51.996;5.180;2022-07-23T08:20:25;31.60;32.00
70456;DHT22;57916;51.996;5.180;2022-07-23T08:22:57;31.60;32.60
70456;DHT22;57916;51.996;5.180;2022-07-23T08:25:29;31.70;31.90
70456;DHT22;57916;51.996;5.180;2022-07-23T08:27:56;31.60;31.00
70456;DHT22;57916;51.996;5.180;2022-07-23T08:30:24;31.60;31.50
70456;DHT22;57916;51.996;5.180;2022-07-23T08:37:59;31.90;34.10
70456;DHT22;57916;51.996;5.180;2022-07-23T08:40:29;32.10;32.20
70456;DHT22;57916;51.996;5.180;2022-07-23T08:42:56;32.20;32.60
70456;DHT22;57916;51.996;5.180;2022-07-23T08:45:26;32.30;31.50
70456;DHT22;57916;51.996;5.180;2022-07-23T08:47:54;32.50;31.50
70456;DHT22;57916;51.996;5.180;2022-07-23T08:50:24;32.60;31.40
70456;DHT22;57916;51.996;5.180;2022-07-23T08:52:52;32.80;31.30
70456;DHT22;57916;51.996;5.180;2022-07-23T08:55:22;33.00;29.90
70456;DHT22;57916;51.996;5.180;2022-07-23T08:57:51;33.20;29.80
70456;DHT22;57916;51.996;5.180;2022-07-23T09:00:20;33.40;30.00
70456;DHT22;57916;51.996;5.180;2022-07-23T09:02:47;33.50;29.40
70456;DHT22;57916;51.996;5.180;2022-07-23T09:05:16;33.70;29.70
70456;DHT22;57916;51.996;5.180;2022-07-23T09:10:56;34.00;29.70
70456;DHT22;57916;51.996;5.180;2022-07-23T09:13:33;34.10;29.70
70456;DHT22;57916;51.996;5.180;2022-07-23T09:16:12;34.30;29.40
70456;DHT22;57916;51.996;5.180;2022-07-23T09:31:25;34.80;28.40
70456;DHT22;57916;51.996;5.180;2022-07-23T09:34:09;34.80;28.30
70456;DHT22;57916;51.996;5.180;2022-07-23T09:36:37;34.70;27.70
70456;DHT22;57916;51.996;5.180;2022-07-23T09:39:04;34.70;28.50
70456;DHT22;57916;51.996;5.180;2022-07-23T09:41:44;34.80;29.10
70456;DHT22;57916;51.996;5.180;2022-07-23T09:44:16;34.80;27.20
70456;DHT22;57916;51.996;5.180;2022-07-23T09:46:46;34.90;27.50
70456;DHT22;57916;51.996;5.180;2022-07-23T09:49:20;34.90;28.10
70456;DHT22;57916;51.996;5.180;2022-07-23T09:51:59;35.10;27.40
70456;DHT22;57916;51.996;5.180;2022-07-23T09:54:39;35.30;28.80
70456;DHT22;57916;51.996;5.180;2022-07-23T09:57:11;35.40;29.20
70456;DHT22;57916;51.996;5.180;2022-07-23T09:59:43;35.60;28.00
70456;DHT22;57916;51.996;5.180;2022-07-23T10:02:12;35.60;27.40
70456;DHT22;57916;51.996;5.180;2022-07-23T10:04:56;35.40;28.20
70456;DHT22;57916;51.996;5.180;2022-07-23T10:07:33;35.50;29.00
70456;DHT22;57916;51.996;5.180;2022-07-23T10:10:21;35.60;28.30
70456;DHT22;57916;51.996;5.180;2022-07-23T10:13:09;35.70;28.30
70456;DHT22;57916;51.996;5.180;2022-07-23T10:15:36;35.70;28.00
70456;DHT22;57916;51.996;5.180;2022-07-23T10:18:03;35.60;27.80
70456;DHT22;57916;51.996;5.180;2022-07-23T10:20:30;35.60;27.60
70456;DHT22;57916;51.996;5.180;2022-07-23T10:23:08;35.70;27.60
70456;DHT22;57916;51.996;5.180;2022-07-23T10:25:49;35.70;27.10
70456;DHT22;57916;51.996;5.180;2022-07-23T10:31:56;35.60;27.70
70456;DHT22;57916;51.996;5.180;2022-07-23T10:34:49;35.60;27.90
70456;DHT22;57916;51.996;5.180;2022-07-23T10:37:28;35.70;27.10
70456;DHT22;57916;51.996;5.180;2022-07-23T10:40:16;35.70;26.80
70456;DHT22;57916;51.996;5.180;2022-07-23T10:42:46;35.70;28.00
70456;DHT22;57916;51.996;5.180;2022-07-23T10:45:29;35.80;27.30
70456;DHT22;57916;51.996;5.180;2022-07-23T10:48:12;35.90;27.10
70456;DHT22;57916;51.996;5.180;2022-07-23T10:50:41;36.00;26.50
70456;DHT22;57916;51.996;5.180;2022-07-23T10:58:03;35.60;25.90
70456;DHT22;57916;51.996;5.180;2022-07-23T11:00:32;35.60;25.80
70456;DHT22;57916;51.996;5.180;2022-07-23T11:03:01;35.70;27.10
70456;DHT22;57916;51.996;5.180;2022-07-23T11:05:45;35.80;27.00
70456;DHT22;57916;51.996;5.180;2022-07-23T11:08:15;36.00;26.30
70456;DHT22;57916;51.996;5.180;2022-07-23T11:24:00;36.10;26.00
70456;DHT22;57916;51.996;5.180;2022-07-23T11:26:47;36.00;26.60
70456;DHT22;57916;51.996;5.180;2022-07-23T11:31:58;36.00;27.00
70456;DHT22;57916;51.996;5.180;2022-07-23T11:34:48;36.00;26.30
70456;DHT22;57916;51.996;5.180;2022-07-23T11:37:34;36.10;26.10
70456;DHT22;57916;51.996;5.180;2022-07-23T11:40:09;35.90;25.90
70456;DHT22;57916;51.996;5.180;2022-07-23T11:42:59;35.80;26.60
70456;DHT22;57916;51.996;5.180;2022-07-23T11:45:36;35.80;28.40
70456;DHT22;57916;51.996;5.180;2022-07-23T11:48:07;36.00;27.00
70456;DHT22;57916;51.996;5.180;2022-07-23T11:50:35;36.00;26.30
70456;DHT22;57916;51.996;5.180;2022-07-23T11:53:03;36.00;26.30
70456;DHT22;57916;51.996;5.180;2022-07-23T11:55:30;36.00;26.40
70456;DHT22;57916;51.996;5.180;2022-07-23T11:57:57;36.00;25.50
70456;DHT22;57916;51.996;5.180;2022-07-23T12:00:29;35.80;25.90
70456;DHT22;57916;51.996;5.180;2022-07-23T12:03:02;35.70;26.70
70456;DHT22;57916;51.996;5.180;2022-07-23T12:05:34;35.60;26.70
70456;DHT22;57916;51.996;5.180;2022-07-23T12:08:07;35.60;26.50
70456;DHT22;57916;51.996;5.180;2022-07-23T12:13:11;35.60;26.30
70456;DHT22;57916;51.996;5.180;2022-07-23T12:15:42;35.50;26.80
70456;DHT22;57916;51.996;5.180;2022-07-23T12:18:13;35.50;26.70
70456;DHT22;57916;51.996;5.180;2022-07-23T12:20:46;35.50;26.90
70456;DHT22;57916;51.996;5.180;2022-07-23T12:23:17;35.20;26.10
70456;DHT22;57916;51.996;5.180;2022-07-23T12:25:48;35.00;25.90
70456;DHT22;57916;51.996;5.180;2022-07-23T12:28:27;34.80;27.90
70456;DHT22;57916;51.996;5.180;2022-07-23T12:30:56;34.80;27.50
70456;DHT22;57916;51.996;5.180;2022-07-23T12:33:33;34.80;27.60
70456;DHT22;57916;51.996;5.180;2022-07-23T12:36:03;34.80;28.10
70456;DHT22;57916;51.996;5.180;2022-07-23T12:38:42;34.80;27.30
70456;DHT22;57916;51.996;5.180;2022-07-23T12:41:10;34.70;27.20
70456;DHT22;57916;51.996;5.180;2022-07-23T12:43:39;34.60;27.20
70456;DHT22;57916;51.996;5.180;2022-07-23T12:46:17;34.50;28.70
70456;DHT22;57916;51.996;5.180;2022-07-23T12:53:53;34.10;28.70
70456;DHT22;57916;51.996;5.180;2022-07-23T12:56:27;34.00;28.10
70456;DHT22;57916;51.996;5.180;2022-07-23T12:59:18;33.90;27.90
70456;DHT22;57916;51.996;5.180;2022-07-23T13:02:03;33.70;28.00
70456;DHT22;57916;51.996;5.180;2022-07-23T13:04:30;33.60;27.80
70456;DHT22;57916;51.996;5.180;2022-07-23T13:06:59;33.40;28.30
70456;DHT22;57916;51.996;5.180;2022-07-23T13:09:33;33.20;27.20
70456;DHT22;57916;51.996;5.180;2022-07-23T13:12:07;33.10;28.40
70456;DHT22;57916;51.996;5.180;2022-07-23T13:14:37;33.00;29.10
70456;DHT22;57916;51.996;5.180;2022-07-23T13:17:05;32.80;28.80
70456;DHT22;57916;51.996;5.180;2022-07-23T13:19:33;32.70;29.40
70456;DHT22;57916;51.996;5.180;2022-07-23T13:22:00;32.50;28.50
70456;DHT22;57916;51.996;5.180;2022-07-23T13:24:34;32.30;28.70
70456;DHT22;57916;51.996;5.180;2022-07-23T13:27:04;32.10;28.90
70456;DHT22;57916;51.996;5.180;2022-07-23T13:29:33;32.00;30.00
70456;DHT22;57916;51.996;5.180;2022-07-23T13:32:02;31.80;30.10
70456;DHT22;57916;51.996;5.180;2022-07-23T13:34:36;31.80;29.40
70456;DHT22;57916;51.996;5.180;2022-07-23T13:37:06;31.70;30.20
70456;DHT22;57916;51.996;5.180;2022-07-23T13:39:34;31.60;31.10
70456;DHT22;57916;51.996;5.180;2022-07-23T13:42:04;31.60;29.90
70456;DHT22;57916;51.996;5.180;2022-07-23T13:44:33;31.50;29.40
70456;DHT22;57916;51.996;5.180;2022-07-23T13:47:00;31.50;30.00
70456;DHT22;57916;51.996;5.180;2022-07-23T13:49:27;31.40;30.00
70456;DHT22;57916;51.996;5.180;2022-07-23T13:51:54;31.50;31.30
70456;DHT22;57916;51.996;5.180;2022-07-23T13:54:22;31.50;31.20
70456;DHT22;57916;51.996;5.180;2022-07-23T13:56:49;31.50;30.80
70456;DHT22;57916;51.996;5.180;2022-07-23T13:59:16;31.50;32.00
70456;DHT22;57916;51.996;5.180;2022-07-23T14:01:44;31.50;30.40
70456;DHT22;57916;51.996;5.180;2022-07-23T14:04:31;31.50;31.80
70456;DHT22;57916;51.996;5.180;2022-07-23T14:07:00;31.40;31.00
70456;DHT22;57916;51.996;5.180;2022-07-23T14:09:28;31.40;30.00
70456;DHT22;57916;51.996;5.180;2022-07-23T14:11:56;31.40;29.30
70456;DHT22;57916;51.996;5.180;2022-07-23T14:14:24;31.30;29.80
70456;DHT22;57916;51.996;5.180;2022-07-23T14:16:52;31.10;29.90
70456;DHT22;57916;51.996;5.180;2022-07-23T14:19:19;31.00;30.70
70456;DHT22;57916;51.996;5.180;2022-07-23T14:21:45;31.00;30.60
70456;DHT22;57916;51.996;5.180;2022-07-23T14:24:15;30.80;30.30
70456;DHT22;57916;51.996;5.180;2022-07-23T14:26:44;30.60;33.60
70456;DHT22;57916;51.996;5.180;2022-07-23T14:29:12;30.60;32.60
70456;DHT22;57916;51.996;5.180;2022-07-23T14:31:39;30.60;33.20
70456;DHT22;57916;51.996;5.180;2022-07-23T14:34:06;30.70;32.90
70456;DHT22;57916;51.996;5.180;2022-07-23T14:36:33;30.70;31.90
70456;DHT22;57916;51.996;5.180;2022-07-23T14:39:00;30.80;32.30
70456;DHT22;57916;51.996;5.180;2022-07-23T14:41:28;30.80;33.40
70456;DHT22;57916;51.996;5.180;2022-07-23T14:43:56;30.80;30.90
70456;DHT22;57916;51.996;5.180;2022-07-23T14:46:23;30.70;32.10
70456;DHT22;57916;51.996;5.180;2022-07-23T14:48:50;30.80;31.30
70456;DHT22;57916;51.996;5.180;2022-07-23T14:51:17;30.80;32.20
70456;DHT22;57916;51.996;5.180;2022-07-23T14:53:45;30.80;32.90
70456;DHT22;57916;51.996;5.180;2022-07-23T14:56:12;30.80;32.30
70456;DHT22;57916;51.996;5.180;2022-07-23T14:58:41;30.80;31.60
70456;DHT22;57916;51.996;5.180;2022-07-23T15:01:09;30.80;32.60
70456;DHT22;57916;51.996;5.180;2022-07-23T15:03:37;30.80;32.40
70456;DHT22;57916;51.996;5.180;2022-07-23T15:06:08;30.70;31.80
70456;DHT22;57916;51.996;5.180;2022-07-23T15:08:35;30.70;32.20
70456;DHT22;57916;51.996;5.180;2022-07-23T15:11:02;30.70;31.60
70456;DHT22;57916;51.996;5.180;2022-07-23T15:13:29;30.60;31.90
70456;DHT22;57916;51.996;5.180;2022-07-23T15:15:57;30.60;31.80
70456;DHT22;57916;51.996;5.180;2022-07-23T15:18:24;30.60;32.00
70456;DHT22;57916;51.996;5.180;2022-07-23T15:20:51;30.60;33.00
70456;DHT22;57916;51.996;5.180;2022-07-23T15:23:18;30.60;32.70
70456;DHT22;57916;51.996;5.180;2022-07-23T15:25:46;30.60;32.70
70456;DHT22;57916;51.996;5.180;2022-07-23T15:28:17;30.60;32.50
70456;DHT22;57916;51.996;5.180;2022-07-23T15:30:48;30.60;32.60
70456;DHT22;57916;51.996;5.180;2022-07-23T15:33:16;30.60;32.80
70456;DHT22;57916;51.996;5.180;2022-07-23T15:35:47;30.50;32.30
70456;DHT22;57916;51.996;5.180;2022-07-23T15:38:15;30.50;32.30
70456;DHT22;57916;51.996;5.180;2022-07-23T15:40:54;30.50;32.30
70456;DHT22;57916;51.996;5.180;2022-07-23T15:43:25;30.40;32.70
70456;DHT22;57916;51.996;5.180;2022-07-23T15:45:52;30.40;33.70
70456;DHT22;57916;51.996;5.180;2022-07-23T15:48:20;30.40;35.00
70456;DHT22;57916;51.996;5.180;2022-07-23T15:50:48;30.40;33.20
70456;DHT22;57916;51.996;5.180;2022-07-23T15:53:16;30.40;34.00
70456;DHT22;57916;51.996;5.180;2022-07-23T15:55:43;30.40;33.50
70456;DHT22;57916;51.996;5.180;2022-07-23T15:58:12;30.50;33.10
70456;DHT22;57916;51.996;5.180;2022-07-23T16:00:40;30.50;33.30
70456;DHT22;57916;51.996;5.180;2022-07-23T16:03:11;30.50;33.10
70456;DHT22;57916;51.996;5.180;2022-07-23T16:05:38;30.50;33.10
70456;DHT22;57916;51.996;5.180;2022-07-23T16:08:07;30.40;33.20
70456;DHT22;57916;51.996;5.180;2022-07-23T16:10:34;30.40;35.70
70456;DHT22;57916;51.996;5.180;2022-07-23T16:13:01;30.50;34.60
70456;DHT22;57916;51.996;5.180;2022-07-23T16:15:28;30.50;33.40
70456;DHT22;57916;51.996;5.180;2022-07-23T16:17:56;30.50;33.10
70456;DHT22;57916;51.996;5.180;2022-07-23T16:20:23;30.50;32.70
70456;DHT22;57916;51.996;5.180;2022-07-23T16:22:51;30.50;33.40
70456;DHT22;57916;51.996;5.180;2022-07-23T16:25:18;30.50;31.80
70456;DHT22;57916;51.996;5.180;2022-07-23T16:27:45;30.40;32.80
70456;DHT22;57916;51.996;5.180;2022-07-23T16:30:13;30.40;32.70
70456;DHT22;57916;51.996;5.180;2022-07-23T16:32:40;30.40;33.10
70456;DHT22;57916;51.996;5.180;2022-07-23T16:35:09;30.30;32.10
70456;DHT22;57916;51.996;5.180;2022-07-23T16:37:41;30.30;32.10